Weather at Hong Kong International Airport

Public forecast

Using degrees Celsius for public forecast. Weather courtesy of forecast.io.

Current aviation weather report (METAR) for Hong Kong International Airport

Retrieved 2022/08/10 16:30 UTC (14 minutes ago):

VHHH 101630Z 11011KT 9999 -SHRA FEW010 SCT018 27/25 Q1006 TEMPO 4000 SHRA

Aviation forecast (TAF) for Hong Kong International Airport

Retrieved 2022/08/10 12:22 UTC (4 hours ago):

TAF VHHH 101100Z 1012/1118 14015KT 9999 FEW015 SCT025 TX30/1106Z TN26/1022Z TEMPO 1012/1018 14022G32KT 3000 TSRA SHRA FEW010CB SCT020 BKN040 TEMPO 1018/1024 14015G30KT 3000 SHRA FEW010CB SCT020 BKN040 TEMPO 1100/1106 14015G25KT 2500 TSRA SHRA FEW010CB SCT020 BKN040 TEMPO 1106/1112 14015G25KT 3500 SHRA FEW010CB SCT020